Chappell Hill, Texas
Current Conditions -  °F | °C
As of 4:35 PM on Sunday 23 Nov 2014 (Local Time) from K11R Reporting Station
Clear Clear  
Wind Chill: 79°   Ceiling: Unl
Heat Index: 79°   Visibility: 10mi
Dew Point: 46°   Wind: 14mph
Humidity: 31%   Direction: 230°SW
Pressure: 29.54"   Gusts: 23mph
Location:  30.14°N, 96.26°W
Report Text: K11R 232235Z AUTO 23012G20KT 10SM CLR 26/08 A2954 RMK AO2 T02610076
Loading
Personal Weather Stations






























Interactive Weather Map New forecast layout! Learn more

10-Day Weather Forecast

Advertisements
Track Severe Weather on mobile